Time;durP1;ratioP1;P1;durP2;ratioP2;P2;SDS_P1;SDS_P2;PMS_P1;PMS_P2;Temp;Humidity;BMP_temperature;BMP_pressure;BME280_temperature;BME280_humidity;BME280_pressure;Samples;Min_cycle;Max_cycle;Signal;HPM_P1;HPM_P2
2021/07/21 00:00:38;;;;;;;6.47;3.80;;;17.10;99.90;;;;;;5044106;28;20018;-71
2021/07/21 00:03:04;;;;;;;10.38;4.13;;;17.10;99.90;;;;;;5044371;28;20034;-71
2021/07/21 00:05:30;;;;;;;11.60;3.38;;;17.10;99.90;;;;;;5044171;28;20160;-71
2021/07/21 00:07:56;;;;;;;7.55;3.95;;;17.10;99.90;;;;;;5059335;28;20026;-68
2021/07/21 00:10:24;;;;;;;11.30;4.50;;;17.10;99.90;;;;;;5044230;28;20033;-68
2021/07/21 00:15:39;;;;;;;6.47;3.70;;;17.10;99.90;;;;;;5043990;28;20060;-70
2021/07/21 00:18:19;;;;;;;9.93;4.38;;;17.10;99.90;;;;;;5047498;28;20029;-69
2021/07/21 00:20:48;;;;;;;5.38;3.42;;;17.10;99.90;;;;;;5048035;28;20075;-70
2021/07/21 00:23:14;;;;;;;7.93;3.70;;;17.10;99.90;;;;;;5048202;28;20026;-72
2021/07/21 00:25:39;;;;;;;17.15;3.90;;;17.10;99.90;;;;;;5046299;28;20041;-71
2021/07/21 00:28:05;;;;;;;8.60;3.75;;;17.10;99.90;;;;;;5047865;28;20034;-70
2021/07/21 00:30:30;;;;;;;10.40;3.88;;;17.10;99.90;;;;;;5047755;28;20034;-70
2021/07/21 00:32:56;;;;;;;8.95;3.92;;;17.10;99.90;;;;;;5047929;28;20037;-70
2021/07/21 00:35:22;;;;;;;14.23;4.55;;;17.10;99.90;;;;;;5047758;28;20093;-68
2021/07/21 00:37:47;;;;;;;10.90;4.30;;;17.10;99.90;;;;;;5047616;28;20036;-73
2021/07/21 00:40:15;;;;;;;7.43;4.15;;;17.10;99.90;;;;;;5048107;28;20083;-73
2021/07/21 00:42:43;;;;;;;8.80;4.05;;;17.10;99.90;;;;;;5047683;28;20029;-69
2021/07/21 00:45:09;;;;;;;17.70;4.40;;;17.00;99.90;;;;;;5047643;28;20022;-72
2021/07/21 00:47:35;;;;;;;7.88;4.28;;;17.10;99.90;;;;;;5047547;28;20026;-71
2021/07/21 00:50:01;;;;;;;9.07;3.42;;;17.00;99.90;;;;;;5062750;28;20030;-73
2021/07/21 00:52:27;;;;;;;9.27;4.15;;;17.00;99.90;;;;;;5047057;28;20076;-73
2021/07/21 00:54:54;;;;;;;8.88;3.72;;;17.00;99.90;;;;;;5047352;28;20026;-73
2021/07/21 00:57:19;;;;;;;9.70;3.70;;;17.00;99.90;;;;;;5047264;28;20076;-74
2021/07/21 00:59:50;;;;;;;8.85;4.53;;;16.90;99.90;;;;;;5046877;28;20037;-72
2021/07/21 01:02:17;;;;;;;7.05;3.15;;;17.00;99.90;;;;;;5047735;28;20029;-71
2021/07/21 01:04:43;;;;;;;15.88;4.38;;;16.90;99.90;;;;;;5047243;28;20072;-73
2021/07/21 01:07:09;;;;;;;11.70;4.55;;;16.90;99.90;;;;;;5047170;28;20088;-72
2021/07/21 01:09:42;;;;;;;10.93;4.60;;;16.90;99.90;;;;;;5062178;28;20030;-71
2021/07/21 01:12:08;;;;;;;6.38;3.78;;;16.90;99.90;;;;;;5046944;28;20048;-71
2021/07/21 01:14:54;;;;;;;6.63;3.38;;;16.90;99.90;;;;;;5046329;28;20541;-70
2021/07/21 01:17:26;;;;;;;9.48;4.18;;;16.90;99.90;;;;;;5047029;28;20037;-71
2021/07/21 01:20:08;;;;;;;8.13;3.88;;;16.90;99.90;;;;;;5046981;28;20037;-70
2021/07/21 01:22:41;;;;;;;12.57;4.55;;;16.80;99.90;;;;;;5047296;28;20013;-75
2021/07/21 01:25:28;;;;;;;9.55;4.35;;;16.80;99.90;;;;;;5047126;28;20040;-74
2021/07/21 01:27:56;;;;;;;9.13;4.13;;;16.80;99.90;;;;;;5045685;28;20080;-74
2021/07/21 01:30:31;;;;;;;12.30;4.63;;;16.80;99.90;;;;;;5046825;28;20045;-71
2021/07/21 01:33:01;;;;;;;17.90;4.82;;;16.80;99.90;;;;;;5046742;28;20032;-72
2021/07/21 01:36:31;;;;;;;13.75;4.95;;;16.80;99.90;;;;;;5046399;28;20029;-71
2021/07/21 01:39:03;;;;;;;13.27;4.32;;;16.80;99.90;;;;;;5027745;28;20077;-75
2021/07/21 01:41:34;;;;;;;7.03;4.28;;;16.70;99.90;;;;;;5046575;28;20041;-75
2021/07/21 01:44:07;;;;;;;8.65;4.35;;;16.70;99.90;;;;;;5046644;28;20029;-73
2021/07/21 01:46:34;;;;;;;13.82;5.07;;;16.70;99.90;;;;;;5046539;28;20029;-73
2021/07/21 01:49:01;;;;;;;12.02;4.95;;;16.70;99.90;;;;;;5046283;28;20036;-73
2021/07/21 01:51:31;;;;;;;16.92;4.47;;;16.60;99.90;;;;;;5046297;28;20026;-71
2021/07/21 01:53:58;;;;;;;15.02;4.97;;;16.60;99.90;;;;;;5046062;28;20025;-73
2021/07/21 01:56:26;;;;;;;11.55;5.07;;;16.60;99.90;;;;;;5046125;28;20049;-71
2021/07/21 01:58:53;;;;;;;17.95;5.30;;;16.50;99.90;;;;;;5045683;28;20092;-71
2021/07/21 02:01:20;;;;;;;8.80;4.60;;;16.60;99.90;;;;;;5046517;28;20036;-70
2021/07/21 02:03:47;;;;;;;10.25;4.45;;;16.40;99.90;;;;;;5045977;28;20025;-71
2021/07/21 02:06:19;;;;;;;14.35;4.80;;;16.50;99.90;;;;;;5046242;28;20022;-72
2021/07/21 02:08:54;;;;;;;11.55;4.60;;;16.40;99.90;;;;;;5045854;28;20029;-72
2021/07/21 02:11:21;;;;;;;8.30;4.38;;;16.30;99.90;;;;;;5046046;28;20044;-69
2021/07/21 02:13:47;;;;;;;13.65;4.50;;;16.30;99.90;;;;;;5045837;28;20096;-72
2021/07/21 02:16:13;;;;;;;11.27;5.18;;;16.30;99.90;;;;;;5046097;28;20414;-73
2021/07/21 02:18:40;;;;;;;12.13;4.30;;;16.20;99.90;;;;;;5045931;28;20025;-71
2021/07/21 02:21:06;;;;;;;9.77;4.72;;;16.20;99.90;;;;;;5061128;28;20088;-70
2021/07/21 02:23:33;;;;;;;14.02;5.13;;;16.20;99.90;;;;;;5045740;28;20017;-70
2021/07/21 02:26:00;;;;;;;15.57;4.90;;;16.10;99.90;;;;;;5045469;28;20029;-69
2021/07/21 02:28:27;;;;;;;9.27;5.07;;;16.10;99.90;;;;;;5045547;28;20032;-71
2021/07/21 02:30:56;;;;;;;16.08;4.70;;;16.10;99.90;;;;;;5061031;28;20120;-69
2021/07/21 02:33:43;;;;;;;15.18;4.97;;;16.00;99.90;;;;;;5045491;28;20053;-71
2021/07/21 02:36:09;;;;;;;13.00;5.28;;;16.10;99.90;;;;;;5045493;28;20045;-69
2021/07/21 02:38:35;;;;;;;8.13;4.22;;;16.10;99.90;;;;;;5045228;28;20346;-71
2021/07/21 02:41:01;;;;;;;9.15;5.25;;;16.00;99.90;;;;;;5045095;28;20030;-69
2021/07/21 02:43:26;;;;;;;8.20;4.30;;;16.00;99.90;;;;;;5044887;28;20091;-69
2021/07/21 02:45:53;;;;;;;10.65;4.82;;;16.00;99.90;;;;;;5045271;28;20025;-71
2021/07/21 02:48:19;;;;;;;11.05;4.43;;;16.00;99.90;;;;;;5045740;28;20025;-69
2021/07/21 02:50:48;;;;;;;15.60;5.75;;;16.00;99.90;;;;;;5045462;28;20140;-71
2021/07/21 02:53:22;;;;;;;8.93;5.18;;;16.00;99.90;;;;;;5045520;28;20068;-70
2021/07/21 02:55:50;;;;;;;17.83;5.25;;;15.90;99.90;;;;;;5045144;28;20092;-69
2021/07/21 02:58:32;;;;;;;13.85;5.30;;;15.90;99.90;;;;;;5044877;28;20048;-69
2021/07/21 03:01:01;;;;;;;17.83;5.85;;;15.90;99.90;;;;;;5045277;28;20049;-69
2021/07/21 03:03:28;;;;;;;11.18;5.47;;;15.90;99.90;;;;;;5044775;28;20120;-70
2021/07/21 03:05:56;;;;;;;10.05;4.60;;;15.90;99.90;;;;;;5045079;28;20033;-70
2021/07/21 03:08:29;;;;;;;12.35;5.22;;;15.90;99.90;;;;;;5044848;28;20081;-70
2021/07/21 03:10:57;;;;;;;11.50;5.27;;;15.80;99.90;;;;;;5044694;28;20025;-70
2021/07/21 03:13:35;;;;;;;9.55;4.70;;;15.80;99.90;;;;;;5059724;28;20466;-70
2021/07/21 03:16:01;;;;;;;12.95;5.40;;;15.80;99.90;;;;;;5044643;28;20095;-71
2021/07/21 03:18:30;;;;;;;11.88;5.65;;;15.80;99.90;;;;;;5044817;28;20017;-72
2021/07/21 03:20:57;;;;;;;10.88;5.07;;;15.70;99.90;;;;;;5044309;28;20084;-72
2021/07/21 03:23:26;;;;;;;10.40;4.35;;;15.70;99.90;;;;;;5044620;28;20104;-70
2021/07/21 03:25:55;;;;;;;11.18;4.90;;;15.70;99.90;;;;;;5044815;28;20036;-71
2021/07/21 03:28:24;;;;;;;9.90;5.15;;;15.70;99.90;;;;;;5044657;28;20053;-72
2021/07/21 03:30:51;;;;;;;9.73;4.47;;;15.70;99.90;;;;;;5044560;28;20028;-72
2021/07/21 03:33:18;;;;;;;14.13;5.53;;;15.70;99.90;;;;;;5044841;28;20026;-70
2021/07/21 03:35:46;;;;;;;14.88;6.03;;;15.60;99.90;;;;;;5044994;28;20041;-70
2021/07/21 03:38:13;;;;;;;11.57;4.88;;;15.60;99.90;;;;;;5045216;28;20075;-69
2021/07/21 03:40:40;;;;;;;19.95;6.30;;;15.60;99.90;;;;;;5044329;28;20164;-69
2021/07/21 03:43:06;;;;;;;15.55;5.57;;;15.60;99.90;;;;;;5044499;28;20025;-69
2021/07/21 03:45:33;;;;;;;16.90;6.43;;;15.50;99.90;;;;;;5044586;28;20026;-71
2021/07/21 03:47:59;;;;;;;11.95;5.22;;;15.50;99.90;;;;;;5044439;28;20107;-69
2021/07/21 03:50:26;;;;;;;13.38;5.60;;;15.60;99.90;;;;;;5044360;28;20028;-70
2021/07/21 03:52:53;;;;;;;11.23;4.93;;;15.60;99.90;;;;;;5043902;28;20033;-69
2021/07/21 03:55:22;;;;;;;12.40;5.13;;;15.60;99.90;;;;;;5044394;28;20025;-70
2021/07/21 03:57:49;;;;;;;14.50;5.88;;;15.60;99.90;;;;;;5044311;28;20037;-70
2021/07/21 04:00:18;;;;;;;11.38;6.22;;;15.50;99.90;;;;;;5044459;28;20385;-67
2021/07/21 04:02:49;;;;;;;12.00;5.95;;;15.50;99.90;;;;;;5044401;28;20029;-74
2021/07/21 04:05:16;;;;;;;12.90;5.90;;;15.60;99.90;;;;;;5044579;28;20033;-70
2021/07/21 04:07:44;;;;;;;8.93;5.65;;;15.50;99.90;;;;;;5044456;28;20506;-68
2021/07/21 04:10:12;;;;;;;9.63;5.28;;;15.50;99.90;;;;;;5043982;28;20075;-74
2021/07/21 04:12:43;;;;;;;13.48;6.03;;;15.40;99.90;;;;;;5044170;28;20033;-70
2021/07/21 04:15:10;;;;;;;14.18;6.13;;;15.50;99.90;;;;;;5043922;28;20132;-71
2021/07/21 04:17:37;;;;;;;14.23;6.63;;;15.50;99.90;;;;;;5043949;28;20045;-71
2021/07/21 04:20:07;;;;;;;14.23;4.97;;;15.50;99.90;;;;;;5043942;28;20026;-73
2021/07/21 04:22:35;;;;;;;12.70;5.25;;;15.50;99.90;;;;;;5044042;28;20025;-71
2021/07/21 04:25:01;;;;;;;16.77;6.90;;;15.50;99.90;;;;;;5043882;28;20030;-73
2021/07/21 04:27:28;;;;;;;11.88;6.00;;;15.50;99.90;;;;;;5043983;28;20056;-72
2021/07/21 04:29:54;;;;;;;29.08;6.15;;;15.50;99.90;;;;;;5043840;28;20033;-72
2021/07/21 04:32:24;;;;;;;15.13;6.40;;;15.50;99.90;;;;;;5044284;28;20022;-70
2021/07/21 04:34:51;;;;;;;11.63;6.20;;;15.50;99.90;;;;;;5043882;28;20108;-69
2021/07/21 04:37:18;;;;;;;16.10;7.53;;;15.40;99.90;;;;;;5043811;28;20065;-71
2021/07/21 04:39:45;;;;;;;18.88;6.65;;;15.50;99.90;;;;;;5044097;28;20569;-73
2021/07/21 04:42:11;;;;;;;11.57;5.07;;;15.50;99.90;;;;;;5043987;28;20033;-70
2021/07/21 04:44:39;;;;;;;14.70;6.57;;;15.50;99.90;;;;;;5043950;28;20025;-70
2021/07/21 04:47:05;;;;;;;18.60;6.93;;;15.50;99.90;;;;;;5043917;28;20139;-70
2021/07/21 04:49:33;;;;;;;31.85;6.35;;;15.50;99.90;;;;;;5043775;28;20029;-70
2021/07/21 04:52:02;;;;;;;13.32;6.15;;;15.50;99.90;;;;;;5042391;28;20036;-74
2021/07/21 04:54:28;;;;;;;20.02;6.70;;;15.60;99.90;;;;;;5043816;28;20389;-71
2021/07/21 04:56:55;;;;;;;11.90;5.93;;;15.60;99.90;;;;;;5043430;28;20037;-71
2021/07/21 04:59:21;;;;;;;18.48;6.78;;;15.50;99.90;;;;;;5043609;28;20040;-70
2021/07/21 05:01:48;;;;;;;14.80;6.15;;;15.60;99.90;;;;;;5042633;28;20092;-70
2021/07/21 05:04:14;;;;;;;17.33;6.28;;;15.70;99.90;;;;;;5045725;28;20029;-71
2021/07/21 05:06:40;;;;;;;17.38;7.05;;;15.70;99.90;;;;;;5047287;28;20105;-70
2021/07/21 05:09:07;;;;;;;12.70;6.03;;;15.80;99.90;;;;;;5046821;28;20057;-68
2021/07/21 05:11:33;;;;;;;12.95;5.88;;;15.80;99.90;;;;;;5047232;28;20399;-69
2021/07/21 05:13:58;;;;;;;15.73;7.32;;;15.90;99.90;;;;;;5046877;28;20109;-70
2021/07/21 05:16:25;;;;;;;13.02;6.28;;;15.90;99.90;;;;;;5046707;28;20041;-68
2021/07/21 05:18:53;;;;;;;13.23;6.20;;;16.00;99.90;;;;;;5045814;28;20026;-70
2021/07/21 05:21:19;;;;;;;11.73;5.88;;;16.00;99.90;;;;;;5046912;28;20064;-69
2021/07/21 05:23:45;;;;;;;14.10;6.43;;;16.10;99.90;;;;;;5045702;28;20025;-71
2021/07/21 05:26:12;;;;;;;16.40;6.15;;;16.10;99.90;;;;;;5047045;28;20029;-68
2021/07/21 05:28:39;;;;;;;17.48;5.32;;;16.10;99.90;;;;;;5046648;28;20026;-69
2021/07/21 05:31:05;;;;;;;16.92;7.20;;;16.20;99.90;;;;;;5047025;28;20056;-70
2021/07/21 05:33:31;;;;;;;20.10;6.15;;;16.20;99.90;;;;;;5046800;28;20052;-70
2021/07/21 05:35:57;;;;;;;12.35;6.63;;;16.20;99.90;;;;;;5046661;28;20033;-72
2021/07/21 05:38:23;;;;;;;12.20;6.88;;;16.20;99.90;;;;;;5046632;28;20120;-71
2021/07/21 05:40:50;;;;;;;10.52;5.45;;;16.30;99.90;;;;;;5046829;28;20028;-70
2021/07/21 05:43:16;;;;;;;13.30;5.82;;;16.30;99.90;;;;;;5052506;28;20045;-70
2021/07/21 05:45:41;;;;;;;17.63;7.30;;;16.30;99.90;;;;;;5060443;28;20523;-69
2021/07/21 05:48:07;;;;;;;18.38;5.88;;;16.30;99.90;;;;;;5054096;28;20025;-68
2021/07/21 05:50:33;;;;;;;17.67;6.68;;;16.40;99.90;;;;;;5057389;28;20037;-73
2021/07/21 05:53:01;;;;;;;14.00;6.18;;;16.50;99.90;;;;;;5058009;28;20030;-71
2021/07/21 05:55:27;;;;;;;13.38;5.55;;;16.50;99.90;;;;;;5045841;28;20048;-68
2021/07/21 05:57:53;;;;;;;12.57;5.65;;;16.50;99.90;;;;;;5045687;28;20041;-71
2021/07/21 06:00:20;;;;;;;17.48;4.85;;;16.40;99.90;;;;;;5046026;28;20037;-71
2021/07/21 06:02:46;;;;;;;12.95;5.65;;;16.50;99.90;;;;;;5046511;28;20036;-70
2021/07/21 06:05:12;;;;;;;13.23;5.95;;;16.50;99.90;;;;;;5046255;28;20029;-71
2021/07/21 06:07:37;;;;;;;11.45;6.05;;;16.50;99.90;;;;;;5046350;28;20029;-71
2021/07/21 06:10:04;;;;;;;18.30;6.20;;;16.50;99.90;;;;;;5062504;28;20033;-69
2021/07/21 06:12:30;;;;;;;13.30;5.32;;;16.60;99.90;;;;;;5066119;28;20116;-70
2021/07/21 06:14:56;;;;;;;17.05;6.25;;;16.60;99.90;;;;;;5065046;28;20049;-71
2021/07/21 06:17:21;;;;;;;14.27;6.22;;;16.60;99.90;;;;;;5065676;28;20036;-71
2021/07/21 06:19:47;;;;;;;14.75;7.03;;;16.70;99.90;;;;;;5066108;28;20408;-72
2021/07/21 06:22:14;;;;;;;16.67;5.65;;;16.70;99.90;;;;;;5065100;28;20028;-69
2021/07/21 06:24:40;;;;;;;11.40;5.28;;;16.70;99.90;;;;;;5065485;28;20104;-69
2021/07/21 06:27:06;;;;;;;13.63;6.10;;;16.80;99.90;;;;;;5065671;28;20037;-70
2021/07/21 06:29:31;;;;;;;14.23;4.65;;;16.80;99.90;;;;;;5065845;28;20044;-68
2021/07/21 06:31:58;;;;;;;16.90;6.35;;;16.80;99.90;;;;;;5064231;28;20021;-70
2021/07/21 06:34:23;;;;;;;16.77;6.10;;;16.80;99.90;;;;;;5065463;28;20024;-71
2021/07/21 06:36:49;;;;;;;9.23;4.60;;;16.80;99.90;;;;;;5065449;28;20037;-72
2021/07/21 06:39:15;;;;;;;12.93;5.68;;;16.90;99.90;;;;;;5065679;28;20060;-74
2021/07/21 06:41:41;;;;;;;13.95;6.05;;;16.90;99.90;;;;;;5064140;28;20560;-74
2021/07/21 06:44:06;;;;;;;21.15;5.45;;;17.00;99.90;;;;;;5064088;28;20025;-71
2021/07/21 06:46:32;;;;;;;14.23;4.97;;;17.00;99.90;;;;;;5060220;28;20017;-72
2021/07/21 06:49:02;;;;;;;12.35;5.40;;;17.10;99.90;;;;;;5049570;28;20048;-71
2021/07/21 06:51:27;;;;;;;11.32;5.47;;;17.10;99.90;;;;;;5045746;28;20025;-71
2021/07/21 06:53:54;;;;;;;10.00;5.35;;;17.10;99.90;;;;;;5055694;28;20450;-73
2021/07/21 06:56:19;;;;;;;9.48;5.40;;;17.10;99.90;;;;;;5045460;28;20037;-70
2021/07/21 06:58:45;;;;;;;9.60;4.50;;;17.20;99.90;;;;;;5045102;28;20028;-72
2021/07/21 07:01:11;;;;;;;11.18;4.45;;;17.20;99.90;;;;;;5044956;28;20033;-72
2021/07/21 07:03:36;;;;;;;12.23;4.93;;;17.30;99.90;;;;;;5044884;28;20041;-72
2021/07/21 07:06:03;;;;;;;9.40;4.55;;;17.30;99.90;;;;;;5045032;28;20060;-71
2021/07/21 07:08:29;;;;;;;12.18;5.50;;;17.40;99.90;;;;;;5044861;28;20036;-70
2021/07/21 07:10:55;;;;;;;9.00;4.47;;;17.40;99.90;;;;;;5044913;28;20394;-71
2021/07/21 07:13:21;;;;;;;17.08;5.18;;;17.50;99.90;;;;;;5044740;28;20043;-70
2021/07/21 07:15:50;;;;;;;13.82;4.53;;;17.50;99.90;;;;;;5045177;28;20037;-72
2021/07/21 07:18:19;;;;;;;15.27;5.60;;;17.50;99.90;;;;;;5043551;28;20026;-71
2021/07/21 07:20:46;;;;;;;14.93;5.47;;;17.60;99.90;;;;;;5054439;28;20025;-72
2021/07/21 07:23:12;;;;;;;17.55;5.10;;;17.60;99.90;;;;;;5044592;28;20026;-71
2021/07/21 07:25:39;;;;;;;8.23;4.25;;;17.70;99.90;;;;;;5044842;28;20041;-70
2021/07/21 07:28:05;;;;;;;8.55;4.13;;;17.80;99.90;;;;;;5048757;28;20087;-71
2021/07/21 07:30:31;;;;;;;10.13;4.20;;;17.90;99.90;;;;;;5055640;28;20037;-69
2021/07/21 07:32:56;;;;;;;7.47;3.70;;;18.00;99.90;;;;;;5043911;28;20029;-69
2021/07/21 07:35:22;;;;;;;7.35;3.63;;;18.10;99.90;;;;;;5043285;28;20025;-77
2021/07/21 07:37:48;;;;;;;10.90;4.47;;;18.10;99.90;;;;;;5044178;28;20052;-71
2021/07/21 07:40:15;;;;;;;9.07;4.43;;;18.30;99.90;;;;;;5042817;28;20037;-70
2021/07/21 07:42:40;;;;;;;12.25;4.47;;;18.50;99.90;;;;;;5054850;28;20033;-71
2021/07/21 07:45:06;;;;;;;14.20;4.93;;;18.60;99.90;;;;;;5061572;28;20029;-70
2021/07/21 07:47:33;;;;;;;10.30;4.05;;;18.60;99.90;;;;;;5063166;28;20017;-70
2021/07/21 07:50:10;;;;;;;5.90;3.13;;;18.60;99.90;;;;;;5058509;28;20025;-70
2021/07/21 07:52:36;;;;;;;7.35;3.75;;;18.70;99.90;;;;;;5044630;28;20028;-71
2021/07/21 07:55:04;;;;;;;9.57;3.92;;;18.70;99.90;;;;;;5055155;28;20053;-70
2021/07/21 07:57:30;;;;;;;11.48;3.75;;;18.70;99.90;;;;;;5058233;28;20413;-74
2021/07/21 07:59:56;;;;;;;8.80;4.13;;;18.70;99.90;;;;;;5044020;28;20048;-72
2021/07/21 08:02:21;;;;;;;5.60;3.47;;;18.70;99.90;;;;;;5058905;28;20029;-73
2021/07/21 08:04:47;;;;;;;10.63;3.90;;;18.80;99.90;;;;;;5061372;28;20025;-71
2021/07/21 08:07:13;;;;;;;7.03;3.38;;;18.90;99.90;;;;;;5063744;28;20033;-72
2021/07/21 08:09:38;;;;;;;9.50;3.38;;;19.00;99.90;;;;;;5059536;28;20022;-74
2021/07/21 08:12:05;;;;;;;6.95;3.75;;;19.00;99.90;;;;;;5063987;28;20017;-71
2021/07/21 08:14:31;;;;;;;16.27;4.70;;;19.10;99.90;;;;;;5056664;28;20105;-74
2021/07/21 08:16:56;;;;;;;5.82;2.88;;;19.10;99.90;;;;;;5058263;28;20044;-69
2021/07/21 08:19:23;;;;;;;7.05;3.70;;;19.20;99.90;;;;;;5042692;28;20021;-72
2021/07/21 08:21:50;;;;;;;7.43;3.33;;;19.30;99.90;;;;;;5043315;28;20080;-71
2021/07/21 08:24:16;;;;;;;7.65;2.83;;;19.30;99.90;;;;;;5042982;28;20021;-69
2021/07/21 08:26:43;;;;;;;5.85;3.03;;;19.40;99.90;;;;;;5044040;28;20026;-71
2021/07/21 08:29:08;;;;;;;3.45;2.22;;;19.50;99.90;;;;;;5058904;28;20116;-68
2021/07/21 08:31:35;;;;;;;10.82;3.65;;;19.60;99.90;;;;;;5056189;28;20444;-69
2021/07/21 08:34:02;;;;;;;6.60;2.95;;;19.60;99.90;;;;;;5044096;28;20033;-68
2021/07/21 08:36:33;;;;;;;6.72;3.30;;;19.60;99.90;;;;;;5044028;28;20084;-71
2021/07/21 08:38:59;;;;;;;7.68;3.28;;;19.70;99.90;;;;;;5046812;28;20033;-71
2021/07/21 08:41:28;;;;;;;7.22;2.90;;;19.80;99.90;;;;;;5066251;28;20033;-70
2021/07/21 08:43:55;;;;;;;7.47;3.22;;;19.90;99.90;;;;;;5062713;28;20026;-73
2021/07/21 08:46:22;;;;;;;7.60;3.40;;;20.00;99.90;;;;;;5061764;28;20033;-72
2021/07/21 08:48:52;;;;;;;7.30;3.47;;;20.00;99.90;;;;;;5047683;28;20025;-73
2021/07/21 08:51:21;;;;;;;8.82;3.50;;;20.10;99.90;;;;;;5047863;28;20033;-69
2021/07/21 08:53:51;;;;;;;6.32;3.05;;;20.20;99.90;;;;;;5047749;28;20025;-73
2021/07/21 08:56:19;;;;;;;11.65;4.13;;;20.30;99.90;;;;;;5047389;28;20048;-72
2021/07/21 08:58:47;;;;;;;5.72;2.80;;;20.50;99.90;;;;;;5047462;28;20517;-70
2021/07/21 09:01:13;;;;;;;6.90;3.17;;;20.60;99.90;;;;;;5049657;28;20061;-70
2021/07/21 09:03:40;;;;;;;7.85;3.00;;;20.70;99.90;;;;;;5047020;28;20052;-70
2021/07/21 09:06:06;;;;;;;6.78;2.70;;;20.90;99.90;;;;;;5080772;28;20053;-71
2021/07/21 09:08:34;;;;;;;3.60;2.28;;;21.00;99.90;;;;;;5052187;28;20033;-69
2021/07/21 09:11:00;;;;;;;4.00;2.35;;;21.10;99.90;;;;;;5046516;28;20025;-72
2021/07/21 09:13:26;;;;;;;4.53;2.67;;;21.20;99.90;;;;;;5054283;28;20021;-71
2021/07/21 09:15:53;;;;;;;6.97;2.97;;;21.20;99.90;;;;;;5066864;28;20028;-71
2021/07/21 09:18:19;;;;;;;4.93;2.80;;;21.30;99.90;;;;;;5066211;28;20040;-73
2021/07/21 09:21:02;;;;;;;4.20;2.80;;;21.40;99.90;;;;;;5066524;28;20417;-72
2021/07/21 09:23:42;;;;;;;3.67;2.30;;;21.50;99.90;;;;;;5064622;28;20029;-72
2021/07/21 09:26:09;;;;;;;10.25;2.60;;;21.60;99.90;;;;;;5066021;28;20040;-72
2021/07/21 09:28:42;;;;;;;3.67;2.47;;;21.50;99.90;;;;;;5065875;28;20029;-71
2021/07/21 09:31:12;;;;;;;4.35;2.50;;;21.40;99.90;;;;;;5065977;28;20081;-68
2021/07/21 09:33:39;;;;;;;5.63;3.05;;;21.20;99.90;;;;;;5066744;28;20057;-70
2021/07/21 09:36:05;;;;;;;4.28;2.67;;;21.10;99.90;;;;;;5064542;28;20057;-70
2021/07/21 09:38:31;;;;;;;5.78;3.13;;;20.90;99.90;;;;;;5064759;28;20036;-68
2021/07/21 09:41:04;;;;;;;5.22;2.67;;;20.70;99.90;;;;;;5065342;28;20100;-70
2021/07/21 09:43:34;;;;;;;10.45;3.58;;;20.60;99.90;;;;;;5062715;28;20061;-73
2021/07/21 09:46:08;;;;;;;6.10;3.05;;;20.40;99.90;;;;;;5059423;28;20036;-69
2021/07/21 09:48:42;;;;;;;8.55;3.95;;;20.30;99.90;;;;;;5048831;28;20053;-74
2021/07/21 09:51:09;;;;;;;11.32;3.15;;;20.20;99.90;;;;;;5065648;28;20793;-68
2021/07/21 09:53:41;;;;;;;6.05;2.78;;;20.20;99.90;;;;;;5066340;28;20039;-71
2021/07/21 09:56:09;;;;;;;6.45;3.28;;;20.20;99.90;;;;;;5066175;28;20041;-70
2021/07/21 09:58:35;;;;;;;6.38;2.92;;;20.20;99.90;;;;;;5081474;28;20043;-70
2021/07/21 10:01:01;;;;;;;5.80;2.75;;;20.20;99.90;;;;;;5066127;28;20025;-71
2021/07/21 10:03:29;;;;;;;9.80;3.15;;;20.20;99.90;;;;;;5047129;28;20032;-72
2021/07/21 10:06:05;;;;;;;7.90;3.03;;;20.20;99.90;;;;;;5046049;28;20029;-73
2021/07/21 10:08:39;;;;;;;5.55;3.10;;;20.10;99.90;;;;;;5044968;28;20750;-73
2021/07/21 10:11:30;;;;;;;6.85;3.67;;;20.10;99.90;;;;;;5046144;28;20108;-70
2021/07/21 10:14:01;;;;;;;7.35;3.28;;;20.00;99.90;;;;;;5055739;28;20057;-70
2021/07/21 10:16:42;;;;;;;9.02;3.40;;;19.90;99.90;;;;;;5066162;28;20097;-71
2021/07/21 10:19:23;;;;;;;5.20;2.85;;;20.00;99.90;;;;;;5065828;28;20035;-68
2021/07/21 10:21:57;;;;;;;9.25;3.20;;;20.00;99.90;;;;;;5065950;28;20025;-71
2021/07/21 10:24:24;;;;;;;8.93;2.63;;;20.00;99.90;;;;;;5065975;28;20047;-72
2021/07/21 10:26:52;;;;;;;5.50;3.20;;;20.00;99.90;;;;;;5065904;28;20040;-70
2021/07/21 10:29:19;;;;;;;7.15;3.25;;;20.10;99.90;;;;;;5065782;28;20029;-69
2021/07/21 10:31:45;;;;;;;9.27;3.83;;;20.30;99.90;;;;;;5061382;28;20812;-69
2021/07/21 10:34:11;;;;;;;7.18;3.28;;;20.30;99.90;;;;;;5045647;28;20025;-69
2021/07/21 10:36:38;;;;;;;6.70;3.13;;;20.40;99.90;;;;;;5045467;28;20116;-71
2021/07/21 10:39:18;;;;;;;6.18;2.67;;;20.50;99.90;;;;;;5045504;28;20045;-70
2021/07/21 10:41:46;;;;;;;5.43;2.80;;;20.50;99.90;;;;;;5045730;28;20037;-70
2021/07/21 10:44:15;;;;;;;8.10;3.25;;;20.50;99.90;;;;;;5045681;28;20025;-70
2021/07/21 10:46:51;;;;;;;9.10;3.50;;;20.50;99.90;;;;;;5045461;28;20032;-71
2021/07/21 10:55:01;;;;;;;11.73;3.97;;;20.50;99.90;;;;;;5013457;28;20057;-71
2021/07/21 11:00:42;;;;;;;9.70;3.00;;;20.60;99.90;;;;;;5023688;28;20120;-73
2021/07/21 11:03:16;;;;;;;8.15;3.45;;;20.70;99.90;;;;;;5044828;28;20029;-73
2021/07/21 11:05:50;;;;;;;5.88;3.08;;;20.70;99.90;;;;;;5045221;28;20085;-71
2021/07/21 11:08:17;;;;;;;5.20;3.23;;;20.80;99.90;;;;;;5045350;28;20093;-71
2021/07/21 11:10:45;;;;;;;7.43;3.78;;;20.80;99.90;;;;;;5045160;28;20510;-69
2021/07/21 11:13:13;;;;;;;7.65;4.10;;;20.80;99.90;;;;;;5045036;28;20477;-69
2021/07/21 11:15:39;;;;;;;6.07;3.42;;;20.90;99.90;;;;;;5044470;28;20037;-70
2021/07/21 11:18:22;;;;;;;6.15;3.05;;;21.00;99.90;;;;;;5044674;28;20045;-68
2021/07/21 11:21:01;;;;;;;6.45;3.95;;;21.10;99.90;;;;;;5044781;28;20081;-72
2021/07/21 11:23:53;;;;;;;8.80;3.80;;;21.20;99.90;;;;;;5044836;28;20034;-69
2021/07/21 11:26:34;;;;;;;8.60;3.60;;;21.30;99.90;;;;;;5041902;28;20040;-70
2021/07/21 11:29:40;;;;;;;8.43;4.20;;;21.40;99.90;;;;;;5044676;28;20029;-70
2021/07/21 11:32:06;;;;;;;11.13;3.42;;;21.50;99.90;;;;;;5044465;28;20036;-72
2021/07/21 11:34:34;;;;;;;6.38;3.65;;;21.60;99.90;;;;;;5044730;28;20065;-71
2021/07/21 11:37:01;;;;;;;10.77;4.57;;;21.70;99.90;;;;;;5044561;28;20037;-70
2021/07/21 11:39:51;;;;;;;5.88;3.33;;;21.80;99.90;;;;;;5044421;28;20075;-67
2021/07/21 11:42:23;;;;;;;6.28;3.47;;;21.80;99.90;;;;;;5044689;28;20026;-69
2021/07/21 11:44:50;;;;;;;8.30;4.10;;;21.70;99.90;;;;;;5044773;28;20056;-69
2021/07/21 11:47:18;;;;;;;6.07;3.40;;;21.60;99.90;;;;;;5044630;28;20033;-76
2021/07/21 11:49:51;;;;;;;7.32;3.45;;;21.60;99.90;;;;;;5043306;28;20025;-70
2021/07/21 11:52:20;;;;;;;6.70;3.85;;;21.40;99.90;;;;;;5044707;28;20040;-69
2021/07/21 11:54:46;;;;;;;5.93;3.38;;;21.30;99.90;;;;;;5044518;28;20029;-69
2021/07/21 11:57:12;;;;;;;10.68;4.10;;;21.10;99.90;;;;;;5044254;28;20067;-70
2021/07/21 11:59:40;;;;;;;5.03;3.35;;;21.00;99.90;;;;;;5044313;28;20061;-68
2021/07/21 12:02:14;;;;;;;10.57;3.60;;;20.80;99.90;;;;;;5044036;28;20021;-68
2021/07/21 12:04:51;;;;;;;11.73;4.18;;;20.60;99.90;;;;;;5044349;28;20394;-68
2021/07/21 12:07:19;;;;;;;5.30;3.72;;;20.40;99.90;;;;;;5044473;28;20057;-66
2021/07/21 12:09:47;;;;;;;9.32;4.30;;;20.20;99.90;;;;;;5044199;28;20478;-68
2021/07/21 12:12:21;;;;;;;15.43;4.63;;;20.00;99.90;;;;;;5044636;28;20018;-68
2021/07/21 12:14:56;;;;;;;8.90;4.32;;;19.80;99.90;;;;;;5048121;28;20083;-70
2021/07/21 12:17:25;;;;;;;;;;;19.70;99.90;;;;;;5048839;28;20132;-69
2021/07/21 12:20:00;;;;;;;12.30;4.78;;;19.50;99.90;;;;;;5048214;28;19905;-70
2021/07/21 12:22:29;;;;;;;9.85;4.32;;;19.40;99.90;;;;;;5048006;28;20052;-69
2021/07/21 12:25:00;;;;;;;16.52;4.80;;;19.40;99.90;;;;;;5048349;28;20030;-68
2021/07/21 12:27:30;;;;;;;9.18;4.70;;;19.40;99.90;;;;;;5047198;28;20541;-71
2021/07/21 12:30:19;;;;;;;12.52;4.30;;;19.40;99.90;;;;;;5048915;28;20030;-70
2021/07/21 12:32:47;;;;;;;13.77;4.32;;;19.40;99.90;;;;;;5048941;28;20025;-69
2021/07/21 12:35:17;;;;;;;6.28;2.97;;;19.40;99.90;;;;;;5048277;28;20029;-69
2021/07/21 12:37:47;;;;;;;6.13;3.40;;;19.40;99.90;;;;;;5047981;28;20092;-68
2021/07/21 12:40:19;;;;;;;5.93;3.30;;;19.60;99.90;;;;;;5047502;28;20029;-68
2021/07/21 12:42:45;;;;;;;6.53;4.00;;;19.70;99.90;;;;;;5048159;28;20025;-69
2021/07/21 12:45:15;;;;;;;9.10;4.10;;;19.90;99.90;;;;;;5047853;28;20013;-69
2021/07/21 12:47:44;;;;;;;7.80;3.63;;;20.00;99.90;;;;;;5047833;28;20053;-69
2021/07/21 12:50:24;;;;;;;6.65;3.20;;;20.20;99.90;;;;;;5047709;28;20017;-68
2021/07/21 12:53:01;;;;;;;6.97;3.83;;;20.50;99.90;;;;;;5047672;28;20034;-72
2021/07/21 12:55:42;;;;;;;9.68;3.80;;;20.70;99.90;;;;;;5047319;28;20025;-72
2021/07/21 12:58:09;;;;;;;8.02;4.32;;;21.00;99.90;;;;;;5047260;28;20035;-72
2021/07/21 13:00:44;;;;;;;4.95;3.13;;;21.30;99.90;;;;;;5047464;28;20033;-70
2021/07/21 13:03:11;;;;;;;7.80;3.53;;;21.70;99.90;;;;;;5047423;28;20036;-73